• Join FlightAware (Why Join?)
  • Login
  • US Flag 
01:53AM EDT


 

Airport Tracker/Info


-or-


 

Live Flight TrackerFlight Track Log ✈ N1910A ✈ 05-Jul-2014 ✈ KSAN - KJAC

Flight Track Log - Related Links

Times and Time Zones

All times are in EDT time to prevent confusion due to time zone crossing. See the N1910A flight status page for this flight to view local times or setup timezone preferences in your user account.

Time Position Orientation Groundspeed Altitude Reporting Facility
EDT Latitude Longitude Course Direction KTS MPH feet Rate Location/Type
02:41PM 32.7500 -117.2333 283° West 208 239 1,800  Level Southern California TRACON
02:42PM 32.7667 -117.3167 283° West 248 285 4,500 2,760 Climbing Southern California TRACON
02:43PM 32.6953 -117.3444 198° South 257 296 7,800 2,160 Climbing Los Angeles Center
02:44PM 32.6567 -117.2833 127° Southeast 247 284 9,500 1,860 Climbing Los Angeles Center
02:45PM 32.6422 -117.1983 101° East 258 297 11,700 2,220 Climbing Los Angeles Center
02:46PM 32.6256 -117.0828 100° East 289 333 14,200 2,220 Climbing Los Angeles Center
02:47PM 32.6103 -116.9825 100° East 304 350 16,400 1,980 Climbing Los Angeles Center
02:48PM 32.6200 -116.8783 84° East 317 365 18,300 1,680 Climbing Los Angeles Center
02:49PM 32.6661 -116.7869 59° Northeast 332 382 19,900 1,440 Climbing Los Angeles Center
02:50PM 32.7556 -116.7394 24° Northeast 356 410 21,300 1,320 Climbing Los Angeles Center
02:51PM 32.8503 -116.6844 26° Northeast 372 428 22,700 1,380 Climbing Los Angeles Center
02:53PM 32.9481 -116.6214 28° Northeast 389 448 24,200 1,380 Climbing Los Angeles Center
02:54PM 33.0483 -116.5542 29° Northeast 402 463 25,600 1,380 Climbing Los Angeles Center
02:55PM 33.1686 -116.4725 30° Northeast 407 468 27,100 1,140 Climbing Los Angeles Center
02:56PM 33.2714 -116.4025 30° Northeast 417 480 28,000 900 Climbing Los Angeles Center
02:57PM 33.3764 -116.3319 29° Northeast 426 490 29,000 480 Climbing Los Angeles Center
02:58PM 33.4794 -116.2517 33° Northeast 438 504 29,000 240 Level Los Angeles Center
02:59PM 33.5656 -116.1514 44° Northeast 433 498 29,600 960 Climbing Los Angeles Center
03:00PM 33.6531 -116.0547 43° Northeast 432 497 31,000 1,500 Climbing Los Angeles Center
03:01PM 33.7553 -115.9400 43° Northeast 423 487 32,800 960 Climbing Los Angeles Center
03:02PM 33.8356 -115.8378 47° Northeast 420 483 33,000 60 Climbing Los Angeles Center
03:03PM 33.9144 -115.7219 51° Northeast 431 496 33,000  Level Los Angeles Center
03:04PM 33.9933 -115.6033 51° Northeast 445 512 33,000 240 Level Los Angeles Center
03:05PM 34.0697 -115.4917 50° Northeast 443 510 33,600 1,200 Climbing Los Angeles Center
03:06PM 34.1425 -115.3875 50° Northeast 422 486 35,600 1,620 Climbing Los Angeles Center
03:07PM 34.2219 -115.2714 50° Northeast 383 441 37,000 660 Climbing Los Angeles Center
03:08PM 34.2914 -115.1708 50° Northeast 383 441 37,000  Level Los Angeles Center
03:09PM 34.3650 -115.0636 50° Northeast 406 467 37,000 300 Level Los Angeles Center
03:10PM 34.4425 -114.9525 50° Northeast 425 489 37,700 900 Climbing Los Angeles Center
03:11PM 34.5147 -114.8436 51° Northeast 421 484 38,900 600 Climbing Los Angeles Center
03:12PM 34.5878 -114.7378 50° Northeast 413 475 39,000  Climbing Los Angeles Center
03:13PM 34.6708 -114.6131 51° Northeast 414 476 39,000  Level Los Angeles Center
03:14PM 34.7481 -114.5047 49° Northeast 421 484 39,000  Level Los Angeles Center
03:15PM 34.8506 -114.4403 27° Northeast 419 482 39,000  Level Los Angeles Center
03:16PM 34.9619 -114.3969 18° North 418 481 39,000  Level Los Angeles Center
03:17PM 35.0964 -114.3450 18° North 420 483 39,000  Level Los Angeles Center
03:18PM 35.2075 -114.3011 18° North 420 483 39,000  Level Los Angeles Center
03:19PM 35.3178 -114.2592 17° North 419 482 39,000  Level Los Angeles Center
03:20PM 35.4278 -114.2153 18° North 419 482 39,000  Level Los Angeles Center
03:21PM 35.5311 -114.1758 17° North 416 479 39,000  Level Los Angeles Center
03:22PM 35.6406 -114.1319 18° North 411 473 39,000  Level Los Angeles Center
03:24PM 35.7756 -114.0775 18° North 412 474 39,000  Level Los Angeles Center
03:25PM 35.8842 -114.0339 18° North 412 474 39,000  Level Los Angeles Center
03:26PM 35.9897 -113.9908 18° North 410 472 39,000  Level Los Angeles Center
03:27PM 36.0975 -113.9489 17° North 408 470 39,000  Level Los Angeles Center
03:28PM 36.2058 -113.9042 18° North 408 470 39,000  Level Los Angeles Center
03:29PM 36.3142 -113.8611 18° North 408 470 39,000  Level Los Angeles Center
03:30PM 36.4431 -113.8083 18° North 408 470 39,000  Level Los Angeles Center
03:31PM 36.5542 -113.7644 18° North 408 470 39,000  Level Los Angeles Center
03:32PM 36.6617 -113.7200 18° North 408 470 39,000  Level Los Angeles Center
03:33PM 36.7689 -113.6742 19° North 408 470 39,000  Level Los Angeles Center
03:34PM 36.8783 -113.6297 18° North 408 470 39,000  Level Los Angeles Center
03:35PM 36.9883 -113.5858 18° North 411 473 39,000  Level Los Angeles Center
03:36PM 37.0975 -113.5408 18° North 411 473 39,000  Level Los Angeles Center
03:37PM 37.2294 -113.4872 18° North 411 473 39,000  Level Los Angeles Center
03:38PM 37.3403 -113.4425 18° North 413 475 39,000  Level Los Angeles Center
03:39PM 37.4506 -113.3956 19° North 414 476 39,000  Level Los Angeles Center
03:40PM 37.5631 -113.3511 17° North 416 479 39,000  Level Los Angeles Center
03:41PM 37.6750 -113.3047 18° North 418 481 39,000  Level Los Angeles Center
03:42PM 37.7867 -113.2589 18° North 418 481 39,000  Level Los Angeles Center
03:43PM 37.8981 -113.2111 19° North 418 481 39,000  Level Los Angeles Center
03:44PM 38.0086 -113.1644 18° North 418 481 39,000  Level Los Angeles Center
03:45PM 38.1422 -113.1081 18° North 418 481 39,000  Level Los Angeles Center
03:47PM 38.2764 -113.0522 18° North 419 482 39,000  Level Salt Lake Center
03:48PM 38.4086 -112.9897 20° North 420 483 39,000  Level Salt Lake Center
03:49PM 38.5172 -112.9319 23° Northeast 420 483 39,000  Level Salt Lake Center
03:50PM 38.6269 -112.8717 23° Northeast 426 490 39,000  Level Salt Lake Center
03:51PM 38.7356 -112.8114 23° Northeast 426 490 39,000  Level Salt Lake Center
03:52PM 38.8442 -112.7511 23° Northeast 425 489 39,000  Level Salt Lake Center
03:53PM 38.9525 -112.6919 23° Northeast 425 489 39,000  Level Salt Lake Center
03:54PM 39.0606 -112.6311 24° Northeast 424 488 39,000  Level Salt Lake Center
03:55PM 39.1894 -112.5606 23° Northeast 422 486 39,000  Level Salt Lake Center
03:56PM 39.3006 -112.4972 24° Northeast 421 484 39,000  Level Salt Lake Center
03:57PM 39.4067 -112.4392 23° Northeast 417 480 39,000  Level Salt Lake Center
03:58PM 39.5111 -112.3789 24° Northeast 414 476 39,000  Level Salt Lake Center
03:59PM 39.6142 -112.3208 23° Northeast 407 468 39,000  Level Salt Lake Center
04:00PM 39.7161 -112.2653 23° Northeast 401 461 39,000  Level Salt Lake Center
04:01PM 39.8169 -112.2072 24° Northeast 399 459 39,000  Level Salt Lake Center
04:02PM 39.9189 -112.1506 23° Northeast 398 458 39,000  Level Salt Lake Center
04:03PM 40.0375 -112.0828 24° Northeast 390 449 39,000  Level Salt Lake Center
04:04PM 40.1353 -112.0225 25° Northeast 389 448 39,000  Level Salt Lake Center
04:05PM 40.2342 -111.9686 23° Northeast 389 448 39,000  Level Salt Lake Center
04:06PM 40.3206 -111.8842 37° Northeast 387 445 39,000  Level Salt Lake Center
04:07PM 40.3919 -111.7808 48° Northeast 385 443 39,000  Level Salt Lake Center
04:08PM 40.4683 -111.6822 44° Northeast 388 447 39,000  Level Salt Lake Center
04:09PM 40.5564 -111.5617 46° Northeast 386 444 39,000  Level Salt Lake Center
04:10PM 40.6278 -111.4631 46° Northeast 375 432 39,000  Level Salt Lake Center
04:11PM 40.7014 -111.3625 46° Northeast 380 437 39,000  Level Salt Lake Center
04:12PM 40.7933 -111.2981 28° Northeast 385 443 39,000  Level Salt Lake Center
04:13PM 40.8994 -111.2775 North 391 450 39,000  Level Salt Lake Center
04:14PM 41.0031 -111.2581 North 383 441 39,000  Level Salt Lake Center
04:15PM 41.1264 -111.2342 North 376 433 39,000  Level Salt Lake Center
04:16PM 41.2308 -111.2144 North 376 433 39,000  Level Salt Lake Center
04:17PM 41.3358 -111.1953 North 378 435 39,000  Level Salt Lake Center
04:18PM 41.4408 -111.1744 North 380 437 39,000  Level Salt Lake Center
04:20PM 41.5461 -111.1542 North 380 437 39,000  Level Salt Lake Center
04:21PM 41.6519 -111.1333 North 382 440 39,000 -540 Level Salt Lake Center
04:22PM 41.7806 -111.1086 North 387 445 37,900 -1,320 Descending Salt Lake Center
04:23PM 41.8939 -111.0861 North 411 473 36,400 -1,500 Descending Salt Lake Center
04:24PM 42.0086 -111.0625 North 416 479 34,900 -1,500 Descending Salt Lake Center
04:25PM 42.1242 -111.0403 North 416 479 33,400 -1,500 Descending Salt Lake Center
04:26PM 42.2394 -111.0183 North 418 481 31,800 -1,740 Descending Salt Lake Center
04:27PM 42.3556 -110.9939 North 420 483 29,900 -1,860 Descending Salt Lake Center
04:28PM 42.4719 -110.9694 North 421 484 28,000 -2,100 Descending Salt Lake Center
04:29PM 42.6064 -110.9436 North 411 473 25,600 -2,160 Descending Salt Lake Center
04:30PM 42.7122 -110.9231 North 403 464 23,600 -1,620 Descending Salt Lake Center
04:31PM 42.8067 -110.9019 North 385 443 22,400 -1,740 Descending Salt Lake Center
04:32PM 42.9281 -110.8772 North 372 428 20,100 -1,200 Descending Salt Lake Center
04:33PM 43.0103 -110.8603 North 360 414 20,000 -660 Descending Salt Lake Center
04:34PM 43.1250 -110.8372 North 350 403 18,800 -1,860 Descending Salt Lake Center
04:35PM 43.2281 -110.8164 North 370 426 16,300 -2,400 Descending Salt Lake Center
04:36PM 43.3297 -110.7953 North 371 427 14,000 -1,500 Descending Salt Lake Center
04:37PM 43.4175 -110.7764 North 324 373 13,300 -1,860 Descending Salt Lake Center
04:38PM 43.5106 -110.7689 North 329 379 10,300 -2,280 Descending Salt Lake Center
04:39PM 43.5964 -110.7831 353° North 312 359 8,600 -1,260 Descending Salt Lake Center
04:40PM 43.6608 -110.7442 24° Northeast 274 315 7,800 -1,020 Descending Salt Lake Center
04:41PM 43.6264 -110.7283 162° South 199 229 6,600 -780 Descending Salt Lake Center
04:42PM 43.5917 -110.7450 199° South 180 207 6,300 -300 Descending Salt Lake Center